createdAt,value
2023-02-09T00:02:43.001Z,-3.06
2023-02-09T00:07:44.651Z,-3.09
2023-02-09T00:13:05.126Z,-3.58
2023-02-09T00:18:06.792Z,-3.87
2023-02-09T00:23:08.601Z,-4.02
2023-02-09T00:28:10.269Z,-4.23
2023-02-09T00:33:11.905Z,-4.07
2023-02-09T00:38:14.159Z,-4.28
2023-02-09T00:43:15.991Z,-4.18
2023-02-09T00:48:17.732Z,-4.36
2023-02-09T00:53:21.706Z,-4.41
2023-02-09T00:58:23.581Z,-4.68
2023-02-09T01:03:25.619Z,-4.58
2023-02-09T01:08:28.799Z,-5.11
2023-02-09T01:13:30.438Z,-4.92
2023-02-09T01:18:32.954Z,-4.83
2023-02-09T01:23:36.863Z,-5.20
2023-02-09T01:28:39.322Z,-5.44
2023-02-09T01:33:41.226Z,-5.42
2023-02-09T01:38:43.294Z,-5.49
2023-02-09T01:43:54.807Z,-5.21
2023-02-09T01:49:15.547Z,-5.81
2023-02-09T01:54:23.367Z,-5.78
2023-02-09T01:59:25.562Z,-5.80
2023-02-09T02:04:27.559Z,-5.98
2023-02-09T02:09:30.999Z,-5.76
2023-02-09T02:14:36.216Z,-5.92
2023-02-09T02:19:56.526Z,-6.02
2023-02-09T02:25:37.160Z,-5.89
2023-02-09T02:31:00.176Z,-5.88
2023-02-09T02:36:12.284Z,-6.01
2023-02-09T02:41:26.833Z,-6.03
2023-02-09T02:46:43.478Z,-6.42
2023-02-09T02:51:49.308Z,-6.45
2023-02-09T02:57:00.538Z,-6.25
2023-02-09T03:02:13.334Z,-6.45
2023-02-09T03:07:17.755Z,-6.40
2023-02-09T03:12:40.597Z,-6.49
2023-02-09T03:18:08.266Z,-6.60
2023-02-09T03:23:31.280Z,-6.74
2023-02-09T03:28:37.614Z,-6.73
2023-02-09T03:33:39.968Z,-6.72
2023-02-09T03:38:41.636Z,-6.70
2023-02-09T03:44:02.118Z,-6.77
2023-02-09T03:49:03.812Z,-6.71
2023-02-09T03:54:05.899Z,-6.92
2023-02-09T03:59:07.826Z,-6.85
2023-02-09T04:04:09.604Z,-7.00
2023-02-09T04:09:11.588Z,-6.70
2023-02-09T04:14:13.464Z,-6.90
2023-02-09T04:19:17.903Z,-6.84
2023-02-09T04:24:21.341Z,-7.13
2023-02-09T04:29:23.030Z,-7.20
2023-02-09T04:34:24.828Z,-7.23
2023-02-09T04:39:26.595Z,-7.04
2023-02-09T04:44:28.423Z,-7.12
2023-02-09T04:49:30.106Z,-7.17
2023-02-09T04:54:31.802Z,-7.23
2023-02-09T04:59:39.041Z,-7.36
2023-02-09T05:04:40.598Z,-7.29
2023-02-09T05:09:42.234Z,-7.21
2023-02-09T05:14:43.884Z,-7.17
2023-02-09T05:19:46.782Z,-7.08
2023-02-09T05:24:48.460Z,-7.27
2023-02-09T05:29:50.171Z,-7.19
2023-02-09T05:34:51.861Z,-7.12
2023-02-09T05:39:54.059Z,-7.03
2023-02-09T05:44:55.694Z,-7.01
2023-02-09T05:49:57.310Z,-6.90
2023-02-09T05:54:58.989Z,-6.83
2023-02-09T06:00:00.684Z,-6.86
2023-02-09T06:05:02.337Z,-6.84
2023-02-09T06:10:04.309Z,-7.33
2023-02-09T06:15:06.677Z,-7.46
2023-02-09T06:20:09.446Z,-7.59
2023-02-09T06:25:11.114Z,-7.60
2023-02-09T06:30:13.336Z,-7.48
2023-02-09T06:35:15.261Z,-7.15
2023-02-09T06:40:17.041Z,-7.00
2023-02-09T06:45:18.879Z,-7.14
2023-02-09T06:50:20.961Z,-7.16
2023-02-09T06:55:22.813Z,-7.31
2023-02-09T07:00:24.561Z,-7.01
2023-02-09T07:05:26.995Z,-7.15
2023-02-09T07:10:28.858Z,-7.21
2023-02-09T07:15:30.605Z,-7.22
2023-02-09T07:20:32.282Z,-7.24
2023-02-09T07:25:34.524Z,-7.13
2023-02-09T07:30:40.986Z,-6.93
2023-02-09T07:35:42.972Z,-6.77
2023-02-09T07:40:46.781Z,-6.74
2023-02-09T07:45:48.772Z,-6.51
2023-02-09T07:50:51.523Z,-6.35
2023-02-09T07:55:53.239Z,-6.10
2023-02-09T08:00:54.992Z,-6.00
2023-02-09T08:06:20.884Z,-5.89
2023-02-09T08:11:34.545Z,-5.80
2023-02-09T08:16:36.821Z,-5.60
2023-02-09T08:21:41.514Z,-5.38
2023-02-09T08:26:44.197Z,-5.23
2023-02-09T08:31:46.216Z,-4.99
2023-02-09T08:36:47.990Z,-4.85
2023-02-09T08:41:49.667Z,-4.45
2023-02-09T08:46:51.719Z,-4.21
2023-02-09T08:51:54.224Z,-4.19
2023-02-09T08:56:55.882Z,-3.99
2023-02-09T09:01:57.516Z,-3.70
2023-02-09T09:06:59.225Z,-3.49
2023-02-09T09:12:00.919Z,-3.13
2023-02-09T09:17:02.591Z,-2.84
2023-02-09T09:22:04.285Z,-2.64
2023-02-09T09:27:07.441Z,-2.54
2023-02-09T09:32:13.886Z,-2.16
2023-02-09T09:37:15.679Z,-1.97
2023-02-09T09:42:25.976Z,-1.73
2023-02-09T09:47:36.546Z,-1.29
2023-02-09T09:52:42.069Z,-1.56
2023-02-09T09:57:44.989Z,-1.26
2023-02-09T10:02:46.912Z,-1.17
2023-02-09T10:08:10.807Z,-0.91
2023-02-09T10:13:23.078Z,-0.76
2023-02-09T10:18:25.814Z,-0.72
2023-02-09T10:23:41.534Z,-0.76
2023-02-09T10:28:52.793Z,-0.59
2023-02-09T10:34:13.674Z,-0.69
2023-02-09T10:39:18.508Z,-0.46
2023-02-09T10:44:24.890Z,-0.08
2023-02-09T10:49:29.130Z,0.25
2023-02-09T10:54:31.640Z,0.90
2023-02-09T10:59:36.177Z,1.17
2023-02-09T11:04:40.097Z,1.59
2023-02-09T11:09:47.630Z,2.18
2023-02-09T11:14:49.699Z,2.71
2023-02-09T11:20:13.834Z,3.61
2023-02-09T11:25:50.171Z,4.43
2023-02-09T11:31:39.401Z,4.44
2023-02-09T11:37:02.753Z,3.89
2023-02-09T11:42:34.400Z,5.32
2023-02-09T11:47:58.459Z,6.21
2023-02-09T11:53:05.090Z,5.94
2023-02-09T11:58:44.174Z,6.29
2023-02-09T12:04:26.024Z,5.43
2023-02-09T12:09:35.801Z,5.75
2023-02-09T12:14:59.181Z,5.45
2023-02-09T12:20:02.575Z,5.16
2023-02-09T12:25:17.556Z,4.36
2023-02-09T12:30:40.682Z,3.48
2023-02-09T12:35:43.931Z,3.75
2023-02-09T12:41:02.553Z,3.80
2023-02-09T12:46:20.172Z,3.21
2023-02-09T12:52:01.380Z,3.41
2023-02-09T12:57:15.046Z,3.23
2023-02-09T13:02:24.005Z,3.27
2023-02-09T13:07:56.192Z,3.10
2023-02-09T13:13:12.740Z,3.21
2023-02-09T13:18:24.029Z,3.17
2023-02-09T13:23:28.646Z,2.73
2023-02-09T13:28:30.352Z,3.03
2023-02-09T13:33:46.264Z,3.14
2023-02-09T13:38:48.685Z,2.87
2023-02-09T13:43:50.358Z,3.18
2023-02-09T13:48:51.998Z,2.95
2023-02-09T13:53:59.073Z,2.95
2023-02-09T13:59:01.417Z,3.12
2023-02-09T14:04:19.919Z,2.59
2023-02-09T14:09:46.602Z,2.90
2023-02-09T14:15:15.918Z,2.76
2023-02-09T14:20:24.611Z,2.75
2023-02-09T14:25:31.104Z,2.43
2023-02-09T14:30:36.384Z,2.33
2023-02-09T14:35:43.383Z,2.53
2023-02-09T14:40:45.228Z,2.21
2023-02-09T14:45:58.132Z,2.55
2023-02-09T14:51:16.193Z,2.34
2023-02-09T14:56:30.020Z,2.25
2023-02-09T15:01:32.124Z,2.17
2023-02-09T15:06:35.509Z,1.97
2023-02-09T15:11:56.105Z,1.82
2023-02-09T15:16:57.825Z,2.10
2023-02-09T15:22:07.471Z,1.91
2023-02-09T15:27:19.719Z,1.92
2023-02-09T15:32:23.472Z,1.47
2023-02-09T15:37:28.560Z,1.05
2023-02-09T15:42:48.869Z,1.14
2023-02-09T15:47:52.751Z,1.10
2023-02-09T15:52:57.352Z,1.07
2023-02-09T15:57:59.419Z,0.85
2023-02-09T16:03:01.700Z,0.55
2023-02-09T16:08:03.504Z,0.36
2023-02-09T16:13:06.456Z,0.27
2023-02-09T16:18:08.183Z,0.20
2023-02-09T16:23:20.249Z,-0.01
2023-02-09T16:28:22.972Z,-0.16
2023-02-09T16:33:25.898Z,-0.24
2023-02-09T16:38:29.829Z,-0.43
2023-02-09T16:43:31.430Z,-0.59
2023-02-09T16:48:34.917Z,-0.74
2023-02-09T16:53:48.309Z,-0.80
2023-02-09T16:58:50.013Z,-0.97
2023-02-09T17:03:56.607Z,-0.84
2023-02-09T17:08:58.733Z,-0.85
2023-02-09T17:14:00.449Z,-0.89
2023-02-09T17:19:06.143Z,-0.88
2023-02-09T17:24:17.666Z,-0.80
2023-02-09T17:29:21.304Z,-0.82
2023-02-09T17:34:28.385Z,-0.57
2023-02-09T17:39:30.985Z,-0.50
2023-02-09T17:44:45.600Z,-0.80
2023-02-09T17:49:47.682Z,-0.73
2023-02-09T17:54:50.882Z,-0.65
2023-02-09T17:59:52.478Z,-0.83
2023-02-09T18:04:54.252Z,-0.84
2023-02-09T18:09:56.637Z,-1.07
2023-02-09T18:14:59.145Z,-1.12
2023-02-09T18:20:00.937Z,-1.34
2023-02-09T18:25:02.807Z,-1.40
2023-02-09T18:30:05.011Z,-1.38
2023-02-09T18:35:07.094Z,-1.48
2023-02-09T18:40:09.125Z,-1.41
2023-02-09T18:45:12.135Z,-1.39
2023-02-09T18:50:19.667Z,-1.39
2023-02-09T18:55:24.406Z,-1.52
2023-02-09T19:00:26.687Z,-1.45
2023-02-09T19:05:32.674Z,-1.45
2023-02-09T19:10:36.010Z,-1.49
2023-02-09T19:15:39.671Z,-1.67
2023-02-09T19:20:41.476Z,-1.55
2023-02-09T19:25:43.164Z,-1.64
2023-02-09T19:30:44.866Z,-1.63
2023-02-09T19:35:46.764Z,-1.55
2023-02-09T19:40:49.329Z,-1.27
2023-02-09T19:45:59.134Z,-1.34
2023-02-09T19:51:00.879Z,-1.35
2023-02-09T19:56:02.679Z,-1.36
2023-02-09T20:01:09.029Z,-1.46
2023-02-09T20:06:13.642Z,-1.66
2023-02-09T20:11:20.436Z,-1.68
2023-02-09T20:16:25.013Z,-1.77
2023-02-09T20:21:26.799Z,-1.79
2023-02-09T20:26:29.797Z,-1.63
2023-02-09T20:31:34.948Z,-1.72
2023-02-09T20:36:39.590Z,-1.69
2023-02-09T20:42:03.053Z,-1.83
2023-02-09T20:47:04.808Z,-1.72
2023-02-09T20:52:07.041Z,-1.93
2023-02-09T20:57:09.007Z,-1.72
2023-02-09T21:02:12.846Z,-1.87
2023-02-09T21:07:14.588Z,-2.06
2023-02-09T21:12:16.276Z,-2.08
2023-02-09T21:17:19.666Z,-2.27
2023-02-09T21:22:21.547Z,-2.17
2023-02-09T21:27:26.070Z,-2.04
2023-02-09T21:32:27.872Z,-2.31
2023-02-09T21:37:32.689Z,-2.03
2023-02-09T21:42:35.659Z,-2.19
2023-02-09T21:47:39.474Z,-2.06
2023-02-09T21:52:41.333Z,-2.23
2023-02-09T21:57:43.453Z,-2.80
2023-02-09T22:02:45.710Z,-2.86
2023-02-09T22:07:48.409Z,-2.73
2023-02-09T22:12:50.203Z,-2.44
2023-02-09T22:17:51.875Z,-2.49
2023-02-09T22:22:56.663Z,-2.64
2023-02-09T22:27:58.365Z,-2.69
2023-02-09T22:33:01.514Z,-2.93
2023-02-09T22:38:03.257Z,-2.95
2023-02-09T22:43:05.137Z,-3.17
2023-02-09T22:48:06.915Z,-2.86
2023-02-09T22:53:08.703Z,-3.04
2023-02-09T22:58:10.415Z,-3.22
2023-02-09T23:03:12.186Z,-3.31
2023-02-09T23:08:13.823Z,-3.34
2023-02-09T23:13:15.463Z,-3.45
2023-02-09T23:18:17.414Z,-3.43
2023-02-09T23:23:19.155Z,-3.46
2023-02-09T23:28:20.968Z,-3.44
2023-02-09T23:33:22.949Z,-3.47
2023-02-09T23:38:24.740Z,-3.56
2023-02-09T23:43:26.442Z,-3.63
2023-02-09T23:48:28.232Z,-3.27
2023-02-09T23:53:31.430Z,-3.37
2023-02-09T23:58:38.073Z,-3.45
